createdAt,value
2018-07-04T00:00:11.191Z,41.60
2018-07-04T00:01:10.771Z,41.60
2018-07-04T00:02:06.113Z,41.60
2018-07-04T00:03:06.260Z,41.30
2018-07-04T00:04:06.057Z,41.50
2018-07-04T00:05:08.752Z,41.30
2018-07-04T00:06:11.240Z,41.30
2018-07-04T00:07:06.274Z,41.70
2018-07-04T00:08:05.795Z,41.90
2018-07-04T00:09:08.941Z,41.90
2018-07-04T00:10:05.409Z,41.90
2018-07-04T00:11:05.927Z,41.70
2018-07-04T00:12:05.778Z,41.70
2018-07-04T00:13:06.355Z,41.90
2018-07-04T00:14:06.549Z,42.00
2018-07-04T00:15:06.546Z,42.20
2018-07-04T00:16:11.266Z,42.60
2018-07-04T00:17:05.679Z,42.70
2018-07-04T00:18:06.278Z,42.70
2018-07-04T00:19:08.212Z,42.20
2018-07-04T00:20:06.037Z,42.20
2018-07-04T00:21:08.481Z,43.00
2018-07-04T00:22:05.979Z,43.10
2018-07-04T00:23:05.386Z,42.80
2018-07-04T00:24:08.510Z,42.90
2018-07-04T00:25:08.876Z,43.50
2018-07-04T00:26:06.417Z,43.50
2018-07-04T00:27:05.748Z,43.70
2018-07-04T00:28:06.542Z,44.10
2018-07-04T00:29:10.758Z,44.20
2018-07-04T00:30:06.231Z,44.30
2018-07-04T00:31:10.961Z,44.30
2018-07-04T00:32:11.336Z,44.20
2018-07-04T00:33:08.291Z,44.40
2018-07-04T00:34:05.970Z,44.40
2018-07-04T00:35:09.297Z,44.60
2018-07-04T00:36:05.704Z,44.50
2018-07-04T00:37:10.952Z,44.50
2018-07-04T00:38:05.959Z,44.50
2018-07-04T00:39:06.107Z,44.40
2018-07-04T00:40:05.679Z,44.20
2018-07-04T00:41:06.226Z,44.60
2018-07-04T00:42:05.860Z,44.60
2018-07-04T00:43:06.192Z,44.20
2018-07-04T00:44:06.608Z,44.00
2018-07-04T00:45:10.874Z,44.20
2018-07-04T00:46:06.726Z,44.10
2018-07-04T00:47:05.983Z,44.10
2018-07-04T00:48:06.035Z,44.20
2018-07-04T00:49:05.703Z,44.40
2018-07-04T00:50:06.362Z,44.20
2018-07-04T00:51:06.226Z,44.70
2018-07-04T00:52:05.789Z,44.60
2018-07-04T00:53:06.493Z,44.50
2018-07-04T00:54:06.645Z,45.10
2018-07-04T00:55:06.649Z,45.00
2018-07-04T00:56:11.208Z,45.00
2018-07-04T00:57:08.549Z,45.20
2018-07-04T00:58:06.004Z,45.20
2018-07-04T00:59:06.309Z,45.50
2018-07-04T01:00:06.129Z,45.20
2018-07-04T01:01:05.573Z,45.10
2018-07-04T01:02:11.412Z,45.60
2018-07-04T01:03:06.239Z,45.60
2018-07-04T01:04:06.633Z,45.60
2018-07-04T01:05:05.829Z,45.40
2018-07-04T01:06:10.929Z,45.60
2018-07-04T01:07:06.187Z,45.60
2018-07-04T01:08:05.857Z,45.30
2018-07-04T01:09:06.563Z,45.40
2018-07-04T01:10:08.765Z,45.40
2018-07-04T01:11:09.616Z,45.50
2018-07-04T01:12:06.432Z,45.40
2018-07-04T01:13:06.710Z,45.30
2018-07-04T01:14:08.941Z,46.60
2018-07-04T01:15:05.418Z,46.60
2018-07-04T01:16:05.968Z,46.80
2018-07-04T01:17:05.699Z,46.60
2018-07-04T01:18:06.351Z,46.50
2018-07-04T01:19:11.164Z,46.20
2018-07-04T01:20:06.652Z,46.50
2018-07-04T01:21:11.064Z,46.70
2018-07-04T01:22:06.257Z,47.40
2018-07-04T01:23:06.161Z,47.50
2018-07-04T01:24:05.533Z,47.50
2018-07-04T01:25:05.995Z,47.30
2018-07-04T01:26:08.394Z,46.70
2018-07-04T01:27:08.389Z,46.60
2018-07-04T01:28:05.866Z,46.60
2018-07-04T01:29:08.231Z,46.90
2018-07-04T01:30:08.554Z,47.00
2018-07-04T01:31:06.541Z,46.90
2018-07-04T01:32:06.080Z,46.80
2018-07-04T01:33:08.536Z,47.00
2018-07-04T01:34:08.485Z,47.20
2018-07-04T01:35:10.972Z,47.20
2018-07-04T01:36:11.313Z,47.30
2018-07-04T01:37:05.822Z,47.60
2018-07-04T01:38:06.439Z,47.60
2018-07-04T01:39:06.098Z,47.60
2018-07-04T01:40:05.637Z,48.10
2018-07-04T01:41:05.878Z,47.80
2018-07-04T01:42:06.609Z,47.90
2018-07-04T01:43:05.708Z,48.30
2018-07-04T01:44:10.929Z,48.10
2018-07-04T01:45:06.383Z,48.00
2018-07-04T01:46:06.359Z,47.90
2018-07-04T01:47:10.708Z,48.30
2018-07-04T01:48:05.690Z,48.30
2018-07-04T01:49:06.358Z,48.10
2018-07-04T01:50:06.356Z,48.10
2018-07-04T01:51:05.527Z,48.50
2018-07-04T01:52:09.130Z,48.70
2018-07-04T01:53:10.990Z,49.10
2018-07-04T01:54:06.334Z,49.10
2018-07-04T01:55:07.572Z,48.80
2018-07-04T01:56:06.037Z,49.10
2018-07-04T01:57:05.637Z,48.80
2018-07-04T01:58:05.681Z,49.10
2018-07-04T01:59:09.406Z,49.60
2018-07-04T02:00:06.539Z,49.60
2018-07-04T02:01:08.836Z,49.50
2018-07-04T02:02:06.193Z,49.50
2018-07-04T02:03:06.090Z,49.40
2018-07-04T02:04:08.584Z,49.10
2018-07-04T02:05:08.828Z,49.00
2018-07-04T02:06:06.287Z,49.00
2018-07-04T02:07:06.176Z,49.30
2018-07-04T02:08:10.711Z,49.50
2018-07-04T02:09:05.869Z,49.50
2018-07-04T02:10:09.099Z,49.60
2018-07-04T02:11:05.782Z,49.50
2018-07-04T02:12:11.114Z,49.50
2018-07-04T02:13:05.867Z,49.50
2018-07-04T02:14:05.834Z,49.40
2018-07-04T02:15:08.789Z,49.50
2018-07-04T02:16:11.373Z,49.40
2018-07-04T02:17:10.653Z,50.10
2018-07-04T02:18:05.826Z,50.10
2018-07-04T02:19:06.205Z,49.80
2018-07-04T02:20:10.565Z,50.50
2018-07-04T02:21:13.651Z,50.70
2018-07-04T02:22:06.132Z,50.70
2018-07-04T02:23:06.750Z,50.90
2018-07-04T02:24:06.639Z,51.30
2018-07-04T02:25:05.439Z,50.90
2018-07-04T02:26:06.351Z,50.90
2018-07-04T02:27:08.477Z,51.00
2018-07-04T02:28:05.974Z,51.00
2018-07-04T02:29:06.328Z,50.90
2018-07-04T02:30:05.761Z,50.80
2018-07-04T02:31:06.244Z,50.60
2018-07-04T02:32:10.949Z,50.70
2018-07-04T02:33:10.447Z,50.70
2018-07-04T02:34:10.663Z,50.50
2018-07-04T02:35:09.240Z,51.00
2018-07-04T02:36:06.131Z,51.00
2018-07-04T02:37:11.294Z,51.10
2018-07-04T02:38:05.972Z,51.10
2018-07-04T02:39:05.960Z,51.50
2018-07-04T02:40:05.327Z,51.40
2018-07-04T02:41:05.910Z,51.50
2018-07-04T02:42:08.112Z,51.20
2018-07-04T02:43:08.835Z,51.20
2018-07-04T02:44:06.268Z,51.20
2018-07-04T02:45:06.098Z,51.10
2018-07-04T02:46:05.927Z,51.50
2018-07-04T02:47:06.281Z,51.20
2018-07-04T02:48:06.703Z,50.90
2018-07-04T02:49:06.272Z,50.90
2018-07-04T02:50:08.359Z,51.20
2018-07-04T02:51:10.784Z,51.30
2018-07-04T02:52:06.170Z,51.10
2018-07-04T02:53:08.732Z,52.30
2018-07-04T02:54:06.635Z,52.30
2018-07-04T02:55:06.498Z,52.10
2018-07-04T02:56:06.305Z,52.10
2018-07-04T02:57:05.884Z,51.80
2018-07-04T02:58:05.992Z,52.00
2018-07-04T02:59:08.875Z,52.40
2018-07-04T03:00:08.848Z,52.50
2018-07-04T03:01:10.155Z,52.60
2018-07-04T03:02:06.586Z,52.60
2018-07-04T03:03:06.751Z,52.40
2018-07-04T03:04:11.507Z,52.30
2018-07-04T03:05:05.973Z,52.30
2018-07-04T03:06:08.872Z,52.10
2018-07-04T03:07:06.403Z,52.00
2018-07-04T03:08:11.135Z,51.90
2018-07-04T03:09:06.200Z,52.00
2018-07-04T03:10:05.591Z,52.10
2018-07-04T03:11:08.850Z,52.20
2018-07-04T03:12:06.260Z,52.20
2018-07-04T03:13:06.303Z,52.20
2018-07-04T03:14:05.540Z,52.20
2018-07-04T03:15:06.076Z,52.70
2018-07-04T03:16:08.256Z,53.40
2018-07-04T03:17:06.287Z,53.40
2018-07-04T03:18:08.521Z,53.30
2018-07-04T03:19:09.423Z,53.50
2018-07-04T03:20:08.421Z,53.30
2018-07-04T03:21:10.939Z,53.80
2018-07-04T03:22:09.001Z,53.70
2018-07-04T03:23:05.455Z,53.60
2018-07-04T03:24:05.856Z,53.40
2018-07-04T03:25:05.597Z,53.40
2018-07-04T03:26:05.853Z,53.70
2018-07-04T03:27:06.100Z,53.70
2018-07-04T03:28:06.238Z,53.40
2018-07-04T03:29:11.301Z,53.40
2018-07-04T03:30:05.462Z,53.40
2018-07-04T03:31:05.741Z,53.20
2018-07-04T03:32:08.699Z,53.40
2018-07-04T03:33:11.208Z,53.30
2018-07-04T03:34:05.703Z,53.20
2018-07-04T03:35:06.192Z,53.20
2018-07-04T03:36:05.392Z,53.00
2018-07-04T03:37:06.297Z,53.40
2018-07-04T03:38:06.128Z,53.10
2018-07-04T03:39:05.575Z,53.00
2018-07-04T03:40:05.654Z,53.00
2018-07-04T03:41:06.144Z,53.50
2018-07-04T03:42:10.726Z,53.60
2018-07-04T03:43:06.747Z,53.70
2018-07-04T03:44:10.877Z,54.10
2018-07-04T03:45:06.363Z,54.30
2018-07-04T03:46:06.016Z,3.20
2018-07-04T03:47:05.446Z,54.10
2018-07-04T03:48:05.464Z,53.90
2018-07-04T03:49:05.841Z,53.80
2018-07-04T03:50:10.601Z,53.40
2018-07-04T03:51:05.928Z,53.00
2018-07-04T03:52:05.930Z,52.90
2018-07-04T03:53:11.487Z,52.70
2018-07-04T03:54:11.041Z,52.60
2018-07-04T03:55:06.193Z,52.30
2018-07-04T03:56:06.378Z,52.30
2018-07-04T03:57:05.537Z,52.20
2018-07-04T03:58:05.721Z,52.00
2018-07-04T03:59:10.772Z,51.70
2018-07-04T04:00:06.207Z,51.70
2018-07-04T04:01:10.834Z,51.50
2018-07-04T04:02:13.153Z,51.10
2018-07-04T04:03:08.111Z,50.90
2018-07-04T04:04:09.074Z,50.60
2018-07-04T04:05:10.680Z,50.40
2018-07-04T04:06:06.191Z,50.40
2018-07-04T04:07:05.723Z,50.00
2018-07-04T04:08:06.528Z,49.60
2018-07-04T04:09:05.501Z,49.00
2018-07-04T04:10:10.663Z,47.60
2018-07-04T04:11:08.303Z,47.40
2018-07-04T04:12:06.076Z,47.40
2018-07-04T04:13:08.795Z,46.70
2018-07-04T04:14:06.579Z,46.70
2018-07-04T04:15:05.533Z,46.30
2018-07-04T04:16:05.641Z,45.90
2018-07-04T04:17:08.688Z,45.70
2018-07-04T04:18:06.617Z,45.70
2018-07-04T04:19:06.625Z,45.60
2018-07-04T04:20:10.877Z,45.30
2018-07-04T04:21:11.966Z,45.00
2018-07-04T04:22:06.430Z,44.60
2018-07-04T04:23:11.149Z,44.30
2018-07-04T04:24:11.273Z,44.00
2018-07-04T04:25:06.126Z,43.70
2018-07-04T04:26:06.223Z,43.20
2018-07-04T04:27:06.026Z,42.80
2018-07-04T04:28:10.654Z,42.20
2018-07-04T04:29:08.300Z,41.90
2018-07-04T04:30:10.869Z,41.60
2018-07-04T04:31:06.232Z,41.50
2018-07-04T04:32:09.214Z,40.30
2018-07-04T04:33:06.323Z,40.30
2018-07-04T04:34:06.239Z,39.80
2018-07-04T04:35:08.870Z,39.80
2018-07-04T04:36:06.064Z,39.80
2018-07-04T04:37:06.708Z,39.80
2018-07-04T04:38:12.234Z,39.30
2018-07-04T04:39:11.058Z,39.30
2018-07-04T04:40:09.957Z,38.90
2018-07-04T04:41:05.877Z,38.90
2018-07-04T04:42:05.349Z,38.60
2018-07-04T04:43:06.712Z,38.40
2018-07-04T04:44:05.651Z,38.00
2018-07-04T04:45:05.707Z,37.80
2018-07-04T04:46:05.858Z,37.50
2018-07-04T04:47:05.636Z,36.70
2018-07-04T04:48:06.775Z,36.20
2018-07-04T04:49:06.236Z,36.10
2018-07-04T04:50:06.263Z,35.40
2018-07-04T04:51:06.358Z,34.80
2018-07-04T04:52:10.835Z,34.40
2018-07-04T04:53:06.097Z,34.50
2018-07-04T04:54:05.736Z,34.10
2018-07-04T04:55:06.468Z,33.80
2018-07-04T04:56:05.873Z,33.60
2018-07-04T04:57:06.084Z,33.40
2018-07-04T04:58:06.343Z,32.70
2018-07-04T04:59:05.957Z,32.60
2018-07-04T05:00:06.502Z,31.80
2018-07-04T05:01:09.458Z,31.50
2018-07-04T05:02:06.395Z,31.50
2018-07-04T05:03:05.872Z,31.30
2018-07-04T05:04:06.452Z,31.30
2018-07-04T05:05:05.940Z,31.30
2018-07-04T05:06:05.964Z,31.20
2018-07-04T05:07:11.429Z,30.80
2018-07-04T05:08:05.817Z,30.80
2018-07-04T05:09:11.228Z,30.60
2018-07-04T05:10:05.594Z,30.60
2018-07-04T05:11:11.037Z,30.20
2018-07-04T05:12:10.043Z,29.10
2018-07-04T05:13:06.330Z,29.10
2018-07-04T05:14:05.908Z,28.80
2018-07-04T05:15:06.193Z,29.10
2018-07-04T05:16:06.078Z,29.10
2018-07-04T05:17:08.864Z,28.80
2018-07-04T05:18:06.235Z,28.80
2018-07-04T05:19:06.326Z,28.70
2018-07-04T05:20:06.743Z,28.70
2018-07-04T05:21:08.881Z,28.20
2018-07-04T05:22:08.834Z,28.20
2018-07-04T05:23:06.565Z,28.30
2018-07-04T05:24:06.029Z,28.30
2018-07-04T05:25:05.965Z,28.10
2018-07-04T05:26:06.482Z,28.20
2018-07-04T05:27:05.468Z,28.00
2018-07-04T05:28:06.384Z,27.80
2018-07-04T05:29:10.726Z,27.90
2018-07-04T05:30:06.192Z,27.90
2018-07-04T05:31:08.649Z,26.90
2018-07-04T05:32:06.140Z,26.90
2018-07-04T05:33:05.996Z,26.30
2018-07-04T05:34:05.939Z,27.00
2018-07-04T05:35:11.452Z,27.30
2018-07-04T05:36:06.246Z,27.40
2018-07-04T05:37:06.349Z,27.50
2018-07-04T05:38:06.464Z,27.40
2018-07-04T05:39:08.534Z,27.80
2018-07-04T05:40:08.561Z,27.70
2018-07-04T05:41:11.059Z,27.50
2018-07-04T05:42:09.138Z,27.10
2018-07-04T05:43:05.656Z,27.00
2018-07-04T05:44:06.049Z,26.60
2018-07-04T05:45:10.774Z,26.90
2018-07-04T05:46:08.626Z,26.90
2018-07-04T05:47:08.726Z,27.00
2018-07-04T05:48:06.485Z,27.00
2018-07-04T05:49:05.718Z,26.40
2018-07-04T05:50:05.784Z,26.30
2018-07-04T05:51:06.206Z,26.40
2018-07-04T05:52:08.285Z,26.10
2018-07-04T05:53:10.881Z,26.10
2018-07-04T05:54:06.540Z,26.10
2018-07-04T05:55:11.121Z,26.00
2018-07-04T05:56:11.416Z,26.00
2018-07-04T05:57:06.021Z,25.60
2018-07-04T05:58:11.357Z,25.70
2018-07-04T05:59:07.995Z,25.20
2018-07-04T06:00:08.337Z,25.20
2018-07-04T06:01:05.815Z,25.20
2018-07-04T06:02:05.873Z,24.60
2018-07-04T06:03:06.258Z,24.90
2018-07-04T06:04:05.719Z,24.80
2018-07-04T06:05:05.972Z,25.00
2018-07-04T06:06:06.569Z,25.00
2018-07-04T06:07:08.392Z,24.80
2018-07-04T06:08:13.363Z,24.50
2018-07-04T06:09:09.086Z,24.30
2018-07-04T06:10:06.015Z,24.40
2018-07-04T06:11:10.413Z,24.50
2018-07-04T06:12:08.106Z,24.60
2018-07-04T06:13:06.231Z,24.70
2018-07-04T06:14:09.204Z,25.20
2018-07-04T06:15:06.264Z,25.20
2018-07-04T06:16:11.452Z,25.00
2018-07-04T06:17:05.896Z,24.90
2018-07-04T06:18:06.080Z,24.80
2018-07-04T06:19:11.350Z,24.40
2018-07-04T06:20:06.024Z,24.40
2018-07-04T06:21:09.970Z,24.40
2018-07-04T06:22:10.491Z,24.10
2018-07-04T06:23:10.643Z,24.00
2018-07-04T06:24:08.479Z,24.10
2018-07-04T06:25:06.243Z,24.10
2018-07-04T06:26:06.013Z,24.00
2018-07-04T06:27:05.977Z,23.90
2018-07-04T06:28:05.608Z,23.80
2018-07-04T06:29:06.168Z,23.60
2018-07-04T06:30:06.408Z,23.20
2018-07-04T06:31:10.948Z,23.80
2018-07-04T06:32:06.485Z,24.00
2018-07-04T06:33:06.331Z,23.90
2018-07-04T06:34:10.441Z,24.00
2018-07-04T06:35:06.369Z,24.30
2018-07-04T06:36:05.976Z,24.10
2018-07-04T06:37:05.930Z,24.60
2018-07-04T06:38:05.708Z,24.70
2018-07-04T06:39:06.090Z,25.00
2018-07-04T06:40:05.589Z,24.30
2018-07-04T06:41:06.494Z,24.00
2018-07-04T06:42:05.997Z,24.20
2018-07-04T06:43:06.724Z,24.20
2018-07-04T06:44:11.232Z,23.80
2018-07-04T06:45:05.637Z,23.70
2018-07-04T06:46:06.190Z,23.90
2018-07-04T06:47:14.542Z,24.10
2018-07-04T06:48:08.686Z,23.30
2018-07-04T06:49:08.824Z,23.50
2018-07-04T06:50:06.922Z,23.50
2018-07-04T06:51:08.357Z,23.00
2018-07-04T06:52:06.153Z,23.00
2018-07-04T06:53:06.393Z,22.80
2018-07-04T06:54:10.919Z,22.80
2018-07-04T06:55:05.909Z,22.80
2018-07-04T06:56:06.332Z,22.80
2018-07-04T06:57:11.086Z,22.20
2018-07-04T06:58:05.891Z,22.20
2018-07-04T06:59:05.603Z,22.70
2018-07-04T07:00:11.205Z,21.60
2018-07-04T07:01:05.639Z,21.60
2018-07-04T07:02:11.355Z,22.00
2018-07-04T07:03:05.785Z,21.90
2018-07-04T07:04:06.718Z,22.00
2018-07-04T07:05:05.926Z,21.60
2018-07-04T07:06:06.146Z,21.60
2018-07-04T07:07:09.013Z,21.80
2018-07-04T07:08:05.463Z,21.90
2018-07-04T07:09:05.879Z,22.10
2018-07-04T07:10:06.337Z,22.30
2018-07-04T07:11:08.284Z,22.70
2018-07-04T07:12:05.713Z,22.80
2018-07-04T07:13:06.439Z,23.10
2018-07-04T07:14:09.236Z,22.80
2018-07-04T07:15:05.907Z,22.80
2018-07-04T07:16:06.281Z,22.80
2018-07-04T07:17:13.118Z,22.90
2018-07-04T07:18:05.474Z,22.90
2018-07-04T07:19:10.761Z,22.90
2018-07-04T07:20:08.694Z,23.00
2018-07-04T07:21:06.262Z,23.00
2018-07-04T07:22:05.901Z,23.00
2018-07-04T07:23:11.412Z,23.10
2018-07-04T07:24:06.016Z,23.50
2018-07-04T07:25:05.681Z,23.60
2018-07-04T07:26:10.965Z,23.10
2018-07-04T07:27:10.502Z,22.30
2018-07-04T07:28:06.329Z,22.30
2018-07-04T07:29:10.646Z,22.10
2018-07-04T07:30:05.743Z,22.10
2018-07-04T07:31:09.250Z,22.30
2018-07-04T07:32:06.294Z,22.40
2018-07-04T07:33:10.588Z,22.60
2018-07-04T07:34:06.117Z,22.60
2018-07-04T07:35:06.022Z,23.00
2018-07-04T07:36:06.642Z,23.60
2018-07-04T07:37:06.019Z,23.40
2018-07-04T07:38:10.409Z,23.20
2018-07-04T07:39:05.471Z,23.30
2018-07-04T07:40:05.809Z,23.10
2018-07-04T07:41:06.768Z,23.60
2018-07-04T07:42:10.776Z,24.00
2018-07-04T07:43:10.912Z,24.40
2018-07-04T07:44:06.150Z,24.20
2018-07-04T07:45:11.082Z,24.20
2018-07-04T07:46:09.247Z,24.40
2018-07-04T07:47:05.724Z,24.40
2018-07-04T07:48:09.814Z,24.50
2018-07-04T07:49:06.285Z,24.50
2018-07-04T07:50:05.714Z,23.90
2018-07-04T07:51:10.591Z,24.60
2018-07-04T07:52:10.874Z,24.60
2018-07-04T07:53:06.243Z,24.90
2018-07-04T07:54:08.735Z,24.40
2018-07-04T07:55:12.190Z,24.40
2018-07-04T07:56:05.579Z,23.90
2018-07-04T07:57:05.691Z,23.50
2018-07-04T07:58:09.757Z,23.00
2018-07-04T07:59:11.562Z,23.00
2018-07-04T08:00:08.609Z,23.20
2018-07-04T08:01:06.098Z,23.30
2018-07-04T08:02:06.354Z,23.80
2018-07-04T08:03:06.596Z,23.00
2018-07-04T08:04:05.991Z,23.10
2018-07-04T08:05:06.431Z,23.10
2018-07-04T08:06:06.066Z,23.00
2018-07-04T08:07:05.720Z,23.30
2018-07-04T08:08:06.513Z,23.30
2018-07-04T08:09:06.052Z,23.40
2018-07-04T08:10:06.608Z,23.40
2018-07-04T08:11:06.065Z,23.40
2018-07-04T08:12:08.394Z,23.10
2018-07-04T08:13:05.954Z,23.20
2018-07-04T08:14:06.364Z,23.00
2018-07-04T08:15:05.767Z,23.20
2018-07-04T08:16:06.730Z,23.20
2018-07-04T08:17:05.573Z,23.30
2018-07-04T08:18:06.745Z,23.40
2018-07-04T08:19:06.697Z,23.20
2018-07-04T08:20:11.312Z,23.00
2018-07-04T08:21:05.730Z,22.90
2018-07-04T08:22:06.368Z,22.70
2018-07-04T08:23:08.805Z,22.90
2018-07-04T08:24:09.269Z,23.10
2018-07-04T08:25:06.287Z,23.10
2018-07-04T08:26:10.580Z,23.10
2018-07-04T08:27:05.938Z,23.10
2018-07-04T08:28:05.655Z,23.20
2018-07-04T08:29:09.143Z,23.00
2018-07-04T08:30:08.709Z,23.00
2018-07-04T08:31:11.185Z,23.00
2018-07-04T08:32:07.863Z,23.00
2018-07-04T08:33:06.000Z,22.80
2018-07-04T08:34:06.154Z,22.90
2018-07-04T08:35:11.365Z,22.80
2018-07-04T08:36:08.433Z,22.50
2018-07-04T08:37:06.299Z,22.50
2018-07-04T08:38:10.859Z,22.50
2018-07-04T08:39:06.403Z,22.40
2018-07-04T08:40:05.470Z,22.70
2018-07-04T08:41:06.246Z,22.80
2018-07-04T08:42:05.352Z,22.60
2018-07-04T08:43:05.549Z,22.60
2018-07-04T08:44:10.581Z,22.40
2018-07-04T08:45:06.479Z,21.40
2018-07-04T08:46:06.184Z,21.10
2018-07-04T08:47:05.946Z,21.30
2018-07-04T08:48:05.930Z,21.10
2018-07-04T08:49:08.416Z,20.00
2018-07-04T08:50:08.400Z,19.80
2018-07-04T08:51:08.743Z,20.00
2018-07-04T08:52:06.281Z,20.00
2018-07-04T08:53:05.893Z,19.40
2018-07-04T08:54:09.173Z,19.10
2018-07-04T08:55:06.028Z,19.10
2018-07-04T08:56:10.696Z,17.50
2018-07-04T08:57:10.975Z,17.60
2018-07-04T08:58:06.235Z,17.60
2018-07-04T08:59:08.162Z,17.50
2018-07-04T09:00:05.570Z,17.50
2018-07-04T09:01:06.118Z,17.70
2018-07-04T09:02:05.559Z,17.30
2018-07-04T09:03:05.851Z,16.80
2018-07-04T09:04:06.541Z,16.70
2018-07-04T09:05:11.048Z,16.80
2018-07-04T09:06:05.736Z,16.80
2018-07-04T09:07:11.051Z,16.30
2018-07-04T09:08:06.050Z,16.30
2018-07-04T09:09:06.119Z,16.50
2018-07-04T09:10:08.732Z,16.40
2018-07-04T09:11:06.344Z,16.40
2018-07-04T09:12:08.247Z,16.20
2018-07-04T09:13:10.665Z,16.20
2018-07-04T09:14:05.995Z,16.20
2018-07-04T09:15:09.295Z,15.90
2018-07-04T09:16:08.535Z,15.90
2018-07-04T09:17:06.345Z,15.90
2018-07-04T09:18:06.255Z,16.20
2018-07-04T09:19:06.582Z,15.50
2018-07-04T09:20:08.967Z,15.90
2018-07-04T09:21:06.736Z,16.00
2018-07-04T09:22:11.209Z,16.10
2018-07-04T09:23:06.666Z,16.10
2018-07-04T09:24:06.059Z,16.00
2018-07-04T09:25:05.590Z,16.00
2018-07-04T09:26:06.253Z,15.20
2018-07-04T09:27:05.360Z,15.30
2018-07-04T09:28:06.712Z,14.70
2018-07-04T09:29:06.293Z,15.00
2018-07-04T09:30:06.439Z,14.70
2018-07-04T09:31:11.165Z,13.50
2018-07-04T09:32:05.910Z,13.50
2018-07-04T09:33:06.360Z,13.30
2018-07-04T09:34:08.345Z,13.50
2018-07-04T09:35:10.593Z,13.50
2018-07-04T09:36:06.822Z,13.60
2018-07-04T09:37:11.151Z,13.10
2018-07-04T09:38:09.216Z,13.40
2018-07-04T09:39:05.706Z,13.40
2018-07-04T09:40:06.444Z,13.50
2018-07-04T09:41:05.773Z,13.40
2018-07-04T09:42:05.873Z,13.70
2018-07-04T09:43:10.988Z,14.00
2018-07-04T09:44:06.041Z,14.10
2018-07-04T09:45:11.081Z,14.40
2018-07-04T09:46:06.416Z,14.60
2018-07-04T09:47:06.664Z,14.20
2018-07-04T09:48:05.979Z,14.20
2018-07-04T09:49:10.885Z,13.80
2018-07-04T09:50:06.654Z,13.60
2018-07-04T09:51:06.114Z,14.10
2018-07-04T09:52:08.722Z,14.50
2018-07-04T09:53:11.315Z,14.40
2018-07-04T09:54:08.189Z,14.30
2018-07-04T09:55:05.546Z,14.30
2018-07-04T09:56:05.691Z,13.90
2018-07-04T09:57:10.467Z,13.50
2018-07-04T09:58:06.961Z,13.50
2018-07-04T09:59:05.992Z,13.80
2018-07-04T10:00:05.680Z,13.60
2018-07-04T10:01:06.043Z,13.60
2018-07-04T10:02:06.044Z,13.40
2018-07-04T10:03:08.957Z,12.20
2018-07-04T10:04:11.284Z,12.20
2018-07-04T10:05:06.231Z,11.90
2018-07-04T10:06:05.640Z,11.20
2018-07-04T10:07:05.821Z,11.50
2018-07-04T10:08:05.844Z,11.80
2018-07-04T10:09:08.122Z,12.30
2018-07-04T10:10:06.494Z,12.30
2018-07-04T10:11:05.537Z,12.60
2018-07-04T10:12:06.035Z,12.90
2018-07-04T10:13:12.296Z,13.00
2018-07-04T10:14:08.518Z,13.00
2018-07-04T10:15:05.979Z,13.00
2018-07-04T10:16:05.782Z,12.90
2018-07-04T10:17:06.439Z,12.80
2018-07-04T10:18:10.922Z,12.30
2018-07-04T10:19:06.860Z,12.30
2018-07-04T10:20:05.839Z,12.70
2018-07-04T10:21:06.440Z,13.40
2018-07-04T10:22:13.549Z,13.30
2018-07-04T10:23:11.040Z,12.80
2018-07-04T10:24:05.953Z,12.70
2018-07-04T10:25:10.801Z,12.80
2018-07-04T10:26:05.876Z,12.80
2018-07-04T10:27:05.765Z,13.10
2018-07-04T10:28:08.711Z,12.90
2018-07-04T10:29:06.071Z,12.90
2018-07-04T10:30:06.361Z,13.00
2018-07-04T10:31:05.518Z,12.70
2018-07-04T10:32:05.609Z,12.30
2018-07-04T10:33:09.452Z,11.70
2018-07-04T10:34:05.808Z,11.70
2018-07-04T10:35:10.438Z,12.60
2018-07-04T10:36:10.805Z,12.70
2018-07-04T10:37:10.859Z,12.70
2018-07-04T10:38:08.677Z,13.20
2018-07-04T10:39:08.947Z,13.30
2018-07-04T10:40:06.233Z,13.30
2018-07-04T10:41:05.454Z,13.00
2018-07-04T10:42:08.286Z,12.20
2018-07-04T10:43:09.016Z,12.70
2018-07-04T10:44:10.430Z,12.60
2018-07-04T10:45:09.133Z,12.80
2018-07-04T10:46:11.869Z,13.00
2018-07-04T10:47:06.715Z,13.00
2018-07-04T10:48:05.903Z,13.50
2018-07-04T10:49:11.469Z,13.40
2018-07-04T10:50:06.124Z,13.30
2018-07-04T10:51:08.479Z,12.30
2018-07-04T10:52:06.380Z,12.30
2018-07-04T10:53:10.987Z,11.90
2018-07-04T10:54:09.277Z,12.30
2018-07-04T10:55:05.947Z,12.20
2018-07-04T10:56:05.781Z,12.80
2018-07-04T10:57:06.061Z,12.30
2018-07-04T10:58:11.177Z,12.50
2018-07-04T10:59:06.263Z,12.60
2018-07-04T11:00:05.616Z,13.10
2018-07-04T11:01:06.449Z,13.10
2018-07-04T11:02:06.027Z,13.20
2018-07-04T11:03:06.546Z,13.30
2018-07-04T11:04:10.806Z,13.30
2018-07-04T11:05:05.962Z,13.30
2018-07-04T11:06:05.973Z,13.00
2018-07-04T11:07:05.636Z,13.30
2018-07-04T11:08:05.991Z,12.90
2018-07-04T11:09:06.669Z,12.70
2018-07-04T11:10:11.088Z,12.70
2018-07-04T11:11:06.383Z,13.00
2018-07-04T11:12:10.668Z,13.00
2018-07-04T11:13:05.899Z,13.00
2018-07-04T11:14:05.519Z,13.10
2018-07-04T11:15:06.166Z,12.90
2018-07-04T11:16:06.850Z,12.60
2018-07-04T11:17:06.536Z,12.70
2018-07-04T11:18:11.310Z,12.40
2018-07-04T11:19:06.434Z,12.60
2018-07-04T11:20:05.900Z,12.80
2018-07-04T11:21:06.493Z,12.90
2018-07-04T11:22:05.592Z,13.00
2018-07-04T11:23:05.490Z,12.90
2018-07-04T11:24:06.427Z,13.00
2018-07-04T11:25:10.718Z,13.40
2018-07-04T11:26:10.835Z,13.40
2018-07-04T11:27:06.423Z,13.30
2018-07-04T11:28:05.916Z,13.40
2018-07-04T11:29:06.217Z,13.60
2018-07-04T11:30:06.138Z,13.70
2018-07-04T11:31:06.513Z,13.70
2018-07-04T11:32:05.791Z,13.60
2018-07-04T11:33:06.048Z,13.30
2018-07-04T11:34:06.345Z,13.50
2018-07-04T11:35:05.941Z,13.60
2018-07-04T11:36:08.813Z,13.90
2018-07-04T11:37:06.213Z,13.90
2018-07-04T11:38:10.686Z,13.30
2018-07-04T11:39:06.060Z,13.20
2018-07-04T11:40:05.875Z,12.70
2018-07-04T11:41:05.828Z,12.90
2018-07-04T11:42:06.137Z,13.10
2018-07-04T11:43:06.233Z,13.20
2018-07-04T11:44:09.065Z,13.40
2018-07-04T11:45:05.577Z,13.30
2018-07-04T11:46:05.629Z,13.40
2018-07-04T11:47:06.325Z,13.10
2018-07-04T11:48:06.731Z,13.40
2018-07-04T11:49:05.526Z,13.50
2018-07-04T11:50:05.494Z,13.30
2018-07-04T11:51:08.991Z,13.30
2018-07-04T11:52:06.903Z,13.30
2018-07-04T11:53:14.532Z,13.00
2018-07-04T11:54:06.987Z,13.00
2018-07-04T11:55:05.488Z,13.00
2018-07-04T11:56:06.222Z,13.10
2018-07-04T11:57:08.937Z,12.70
2018-07-04T11:58:06.390Z,12.70
2018-07-04T11:59:05.417Z,12.60
2018-07-04T12:00:05.660Z,12.90
2018-07-04T12:01:06.878Z,12.80
2018-07-04T12:02:06.073Z,12.90
2018-07-04T12:03:06.509Z,12.70
2018-07-04T12:04:08.755Z,12.10
2018-07-04T12:05:06.149Z,12.10
2018-07-04T12:06:11.573Z,11.60
2018-07-04T12:07:11.053Z,11.50
2018-07-04T12:08:10.514Z,11.70
2018-07-04T12:09:05.563Z,11.70
2018-07-04T12:10:05.903Z,12.00
2018-07-04T12:11:10.851Z,11.70
2018-07-04T12:12:06.334Z,11.70
2018-07-04T12:13:10.946Z,12.00
2018-07-04T12:14:11.063Z,11.70
2018-07-04T12:15:09.648Z,12.30
2018-07-04T12:16:06.649Z,12.30
2018-07-04T12:17:05.892Z,12.30
2018-07-04T12:18:08.657Z,12.30
2018-07-04T12:19:05.984Z,12.30
2018-07-04T12:20:06.145Z,12.50
2018-07-04T12:21:10.951Z,13.00
2018-07-04T12:22:11.365Z,13.10
2018-07-04T12:23:08.440Z,13.60
2018-07-04T12:24:08.467Z,14.00
2018-07-04T12:25:05.768Z,14.00
2018-07-04T12:26:05.801Z,13.80
2018-07-04T12:27:06.164Z,13.80
2018-07-04T12:28:06.202Z,13.80
2018-07-04T12:29:06.361Z,14.00
2018-07-04T12:30:06.332Z,14.00
2018-07-04T12:31:10.912Z,14.00
2018-07-04T12:32:06.638Z,14.00
2018-07-04T12:33:05.568Z,13.90
2018-07-04T12:34:10.630Z,14.20
2018-07-04T12:35:10.706Z,14.30
2018-07-04T12:36:10.885Z,13.60
2018-07-04T12:37:06.254Z,13.60
2018-07-04T12:38:10.681Z,13.50
2018-07-04T12:39:05.836Z,13.40
2018-07-04T12:40:10.719Z,13.30
2018-07-04T12:41:09.207Z,13.20
2018-07-04T12:42:05.823Z,13.30
2018-07-04T12:43:06.071Z,13.30
2018-07-04T12:44:05.861Z,13.40
2018-07-04T12:45:06.089Z,13.40
2018-07-04T12:46:05.930Z,13.30
2018-07-04T12:47:06.148Z,13.40
2018-07-04T12:48:05.937Z,13.60
2018-07-04T12:49:05.920Z,13.90
2018-07-04T12:50:06.206Z,13.90
2018-07-04T12:51:05.628Z,13.80
2018-07-04T12:52:05.650Z,13.90